createdAt,value
2023-05-12T00:00:02.480Z,0
2023-05-12T00:05:03.373Z,0
2023-05-12T00:10:03.007Z,0
2023-05-12T00:15:02.771Z,0
2023-05-12T00:20:02.570Z,0
2023-05-12T00:25:03.354Z,0
2023-05-12T00:30:03.365Z,0
2023-05-12T00:35:03.087Z,0
2023-05-12T00:40:03.288Z,0
2023-05-12T00:45:03.017Z,0
2023-05-12T00:50:03.016Z,0
2023-05-12T00:55:03.535Z,0
2023-05-12T01:00:03.388Z,0
2023-05-12T01:05:03.278Z,0
2023-05-12T01:10:03.213Z,0
2023-05-12T01:15:03.226Z,0
2023-05-12T01:20:02.927Z,0
2023-05-12T01:25:02.886Z,0
2023-05-12T01:30:02.677Z,0
2023-05-12T01:35:02.768Z,0
2023-05-12T01:40:02.577Z,0
2023-05-12T01:45:02.490Z,0
2023-05-12T01:50:03.190Z,0
2023-05-12T01:55:03.795Z,0
2023-05-12T02:00:02.736Z,0
2023-05-12T02:05:02.616Z,0
2023-05-12T02:10:02.463Z,0
2023-05-12T02:15:03.475Z,0
2023-05-12T02:20:03.319Z,0
2023-05-12T02:25:02.979Z,0
2023-05-12T02:30:02.919Z,0
2023-05-12T02:35:02.573Z,0.11
2023-05-12T02:40:02.449Z,0.34
2023-05-12T02:45:03.209Z,0.79
2023-05-12T02:50:03.002Z,1.92
2023-05-12T02:55:03.064Z,4.07
2023-05-12T03:00:02.482Z,8.49
2023-05-12T03:05:02.455Z,6.67
2023-05-12T03:10:03.001Z,15
2023-05-12T03:15:03.010Z,30
2023-05-12T03:20:02.996Z,51.67
2023-05-12T03:25:02.672Z,81.67
2023-05-12T03:30:02.905Z,171.67
2023-05-12T03:35:02.465Z,218.33
2023-05-12T03:40:03.213Z,285
2023-05-12T03:45:02.878Z,363.33
2023-05-12T03:50:03.319Z,450
2023-05-12T03:55:03.612Z,538.33
2023-05-12T04:00:02.878Z,640
2023-05-12T04:05:02.912Z,706.67
2023-05-12T04:10:02.603Z,813.33
2023-05-12T04:15:03.324Z,885
2023-05-12T04:20:03.121Z,961.67
2023-05-12T04:25:02.804Z,1018.33
2023-05-12T04:30:02.726Z,1126.67
2023-05-12T04:35:02.464Z,1278.33
2023-05-12T04:40:03.159Z,1523.33
2023-05-12T04:45:03.031Z,1745
2023-05-12T04:50:02.699Z,1900
2023-05-12T04:55:03.897Z,2058.33
2023-05-12T05:00:03.192Z,2201.67
2023-05-12T05:05:03.012Z,2610
2023-05-12T05:10:02.875Z,2951.67
2023-05-12T05:15:02.707Z,3240
2023-05-12T05:25:02.847Z,3735
2023-05-12T05:30:02.614Z,4083.33
2023-05-12T05:35:03.265Z,4373.33
2023-05-12T05:40:03.028Z,5358.33
2023-05-12T05:45:03.218Z,4815
2023-05-12T05:50:03.128Z,7043.33
2023-05-12T05:55:03.439Z,8031.67
2023-05-12T06:00:02.841Z,7975
2023-05-12T06:05:02.835Z,7933.33
2023-05-12T06:10:02.640Z,7838.33
2023-05-12T06:15:02.481Z,8065
2023-05-12T06:20:03.254Z,9211.67
2023-05-12T06:25:03.056Z,9638.33
2023-05-12T06:30:02.746Z,9931.67
2023-05-12T06:35:02.461Z,10308.33
2023-05-12T06:40:03.216Z,10690
2023-05-12T06:45:03.202Z,10746.67
2023-05-12T06:50:03.029Z,11425
2023-05-12T06:55:03.210Z,11866.67
2023-05-12T07:00:02.482Z,12415
2023-05-12T07:05:03.224Z,13023.33
2023-05-12T07:10:03.093Z,13051.67
2023-05-12T07:15:03.232Z,13516.67
2023-05-12T07:20:02.972Z,29340
2023-05-12T07:25:02.935Z,39380
2023-05-12T07:30:02.756Z,41100
2023-05-12T07:35:02.484Z,38066.67
2023-05-12T07:40:03.253Z,39393.33
2023-05-12T07:45:02.974Z,40223.33
2023-05-12T07:50:02.686Z,39466.67
2023-05-12T07:55:04.371Z,37796.67
2023-05-12T08:00:02.639Z,39570
2023-05-12T08:05:03.284Z,39936.67
2023-05-12T08:10:03.176Z,40203.33
2023-05-12T08:15:02.956Z,41506.67
2023-05-12T08:20:02.745Z,41450
2023-05-12T08:25:03.171Z,43516.67
2023-05-12T08:30:02.427Z,59329.22
2023-05-12T08:35:03.128Z,62180.86
2023-05-12T08:40:02.944Z,62310.23
2023-05-12T08:45:03.179Z,47230
2023-05-12T08:50:02.855Z,46083.33
2023-05-12T08:55:04.282Z,61753.2
2023-05-12T09:00:02.452Z,63708.2
2023-05-12T09:05:03.231Z,64033.44
2023-05-12T09:10:02.953Z,67657.73
2023-05-12T09:15:02.828Z,66895.86
2023-05-12T09:20:02.752Z,67048.59
2023-05-12T09:25:02.436Z,62019.14
2023-05-12T09:30:03.281Z,47333.33
2023-05-12T09:35:03.162Z,67968.59
2023-05-12T09:40:02.941Z,69961.33
2023-05-12T09:45:03.131Z,70239.84
2023-05-12T09:50:02.758Z,65925.55
2023-05-12T09:55:03.276Z,67718.83
2023-05-12T10:00:09.252Z,64845.62
2023-05-12T10:05:03.130Z,63016.41
2023-05-12T10:10:02.725Z,73515.55
2023-05-12T10:15:02.829Z,74302.58
2023-05-12T10:20:02.515Z,73867.73
2023-05-12T10:25:03.276Z,78527.03
2023-05-12T10:30:03.049Z,77930.47
2023-05-12T10:35:02.803Z,81261.88
2023-05-12T10:40:02.653Z,81308.59
2023-05-12T10:45:03.351Z,84726.25
2023-05-12T10:50:03.231Z,86853.75
2023-05-12T10:55:05.095Z,83804.45
2023-05-12T11:00:05.130Z,6130
2023-05-12T11:05:06.697Z,83806.25
2023-05-12T11:10:05.655Z,84988.59
2023-05-12T11:15:03.334Z,86778.28
2023-05-12T11:20:02.867Z,86287.73
2023-05-12T11:25:02.764Z,88187.03
2023-05-12T11:30:02.665Z,86469.22
2023-05-12T11:35:03.229Z,91696.33
2023-05-12T11:40:02.937Z,88073.83
2023-05-12T11:45:02.694Z,85518.67
2023-05-12T11:50:02.694Z,88657.81
2023-05-12T11:55:04.324Z,89083.67
2023-05-12T12:00:03.225Z,81459.53
2023-05-12T12:05:03.241Z,82075.86
2023-05-12T12:10:02.972Z,79948.36
2023-05-12T12:15:02.794Z,76018.59
2023-05-12T12:20:02.609Z,79008.59
2023-05-12T12:25:03.444Z,83076.72
2023-05-12T12:30:02.484Z,83245.63
2023-05-12T12:35:03.337Z,6008.33
2023-05-12T12:40:03.096Z,64419.77
2023-05-12T12:45:02.787Z,7508.33
2023-05-12T12:50:02.615Z,76845.16
2023-05-12T12:55:03.839Z,73319.69
2023-05-12T13:00:03.089Z,66283.13
2023-05-12T13:05:02.821Z,4970
2023-05-12T13:10:02.551Z,69447.42
2023-05-12T13:15:02.918Z,70498.59
2023-05-12T13:20:02.696Z,69643.28
2023-05-12T13:25:02.563Z,67641.56
2023-05-12T13:30:03.074Z,63875.31
2023-05-12T13:35:02.888Z,66403.52
2023-05-12T13:40:02.565Z,66085.47
2023-05-12T13:45:03.130Z,66288.52
2023-05-12T13:50:02.890Z,67546.33
2023-05-12T13:55:02.855Z,64204.14
2023-05-12T14:00:02.513Z,59688.59
2023-05-12T14:05:03.358Z,49330
2023-05-12T14:10:02.426Z,46950
2023-05-12T14:15:29.352Z,44983.33
2023-05-12T14:20:03.200Z,47916.67
2023-05-12T14:25:02.986Z,42923.33
2023-05-12T14:30:02.916Z,39856.67
2023-05-12T14:35:02.542Z,39260
2023-05-12T14:40:03.342Z,36433.33
2023-05-12T14:45:03.040Z,35536.67
2023-05-12T14:50:02.746Z,35430
2023-05-12T14:55:03.105Z,34623.33
2023-05-12T15:00:03.481Z,36970
2023-05-12T15:05:03.052Z,32016.67
2023-05-12T15:10:03.123Z,8775
2023-05-12T15:15:02.710Z,36510
2023-05-12T15:20:02.535Z,5323.33
2023-05-12T15:25:03.113Z,4426.67
2023-05-12T15:30:03.060Z,4693.33
2023-05-12T15:35:02.613Z,7321.67
2023-05-12T15:40:02.558Z,13246.67
2023-05-12T15:45:03.256Z,28153.33
2023-05-12T15:50:03.139Z,28673.33
2023-05-12T15:55:03.194Z,12523.33
2023-05-12T16:00:03.082Z,10246.67
2023-05-12T16:05:03.481Z,6726.67
2023-05-12T16:10:03.107Z,6558.33
2023-05-12T16:15:02.913Z,5966.67
2023-05-12T16:20:02.899Z,4700
2023-05-12T16:25:02.687Z,4121.67
2023-05-12T16:30:02.479Z,4783.33
2023-05-12T16:35:03.320Z,3930
2023-05-12T16:40:03.274Z,3608.33
2023-05-12T16:45:02.954Z,3343.33
2023-05-12T16:50:02.736Z,3101.67
2023-05-12T16:55:03.601Z,3240
2023-05-12T17:00:02.447Z,6300
2023-05-12T17:05:02.544Z,4585
2023-05-12T17:10:02.569Z,3950
2023-05-12T17:15:08.458Z,2585
2023-05-12T17:20:02.966Z,2935
2023-05-12T17:25:03.227Z,2015
2023-05-12T17:30:03.271Z,2048.33
2023-05-12T17:35:02.771Z,1718.33
2023-05-12T17:40:02.528Z,1485
2023-05-12T17:45:03.331Z,1456.67
2023-05-12T17:50:03.569Z,1706.67
2023-05-12T17:55:03.133Z,1493.33
2023-05-12T18:00:02.492Z,1363.33
2023-05-12T18:05:03.300Z,1108.33
2023-05-12T18:10:02.948Z,896.67
2023-05-12T18:15:02.827Z,743.33
2023-05-12T18:20:02.661Z,640
2023-05-12T18:25:02.280Z,540
2023-05-12T18:30:03.591Z,341.67
2023-05-12T18:35:03.021Z,271.67
2023-05-12T18:40:02.767Z,213.33
2023-05-12T18:45:02.482Z,160
2023-05-12T18:50:03.210Z,115
2023-05-12T18:55:03.376Z,76.67
2023-05-12T19:00:03.065Z,45
2023-05-12T19:05:02.822Z,25
2023-05-12T19:10:02.464Z,11.67
2023-05-12T19:15:03.436Z,5
2023-05-12T19:20:02.532Z,7.13
2023-05-12T19:25:03.360Z,3.62
2023-05-12T19:30:03.172Z,1.7
2023-05-12T19:35:02.792Z,0.68
2023-05-12T19:40:02.690Z,0.23
2023-05-12T19:45:02.577Z,0
2023-05-12T19:50:03.213Z,0
2023-05-12T19:55:03.836Z,0
2023-05-12T20:00:02.826Z,0
2023-05-12T20:05:02.464Z,0
2023-05-12T20:10:03.236Z,0
2023-05-12T20:15:02.993Z,0
2023-05-12T20:20:02.940Z,0
2023-05-12T20:25:02.654Z,0
2023-05-12T20:30:03.757Z,0
2023-05-12T20:35:03.130Z,0
2023-05-12T20:40:02.962Z,0
2023-05-12T20:45:02.782Z,0
2023-05-12T20:50:02.630Z,0
2023-05-12T20:55:09.024Z,0
2023-05-12T21:00:02.668Z,0
2023-05-12T21:05:02.453Z,0
2023-05-12T21:10:03.317Z,0
2023-05-12T21:15:03.202Z,0
2023-05-12T21:20:03.001Z,0
2023-05-12T21:25:02.696Z,0
2023-05-12T21:30:03.439Z,0
2023-05-12T21:35:03.250Z,0
2023-05-12T21:40:02.913Z,0
2023-05-12T21:45:02.812Z,0
2023-05-12T21:50:03.054Z,0
2023-05-12T21:55:03.334Z,0
2023-05-12T22:00:02.693Z,0
2023-05-12T22:05:02.877Z,0
2023-05-12T22:10:02.543Z,0
2023-05-12T22:15:02.733Z,0
2023-05-12T22:20:02.510Z,0
2023-05-12T22:25:03.197Z,0
2023-05-12T22:30:03.136Z,0
2023-05-12T22:35:03.434Z,0
2023-05-12T22:40:02.730Z,0
2023-05-12T22:45:02.979Z,0
2023-05-12T22:50:02.679Z,0
2023-05-12T22:55:03.257Z,0
2023-05-12T23:00:02.432Z,0
2023-05-12T23:05:03.128Z,0
2023-05-12T23:10:02.574Z,0
2023-05-12T23:15:03.107Z,0
2023-05-12T23:20:02.903Z,0
2023-05-12T23:25:03.013Z,0
2023-05-12T23:30:02.711Z,0
2023-05-12T23:35:02.654Z,0
2023-05-12T23:40:03.128Z,0
2023-05-12T23:45:03.399Z,0
2023-05-12T23:50:03.016Z,0
2023-05-12T23:55:03.035Z,0
